createdAt,value
2022-10-01T00:00:13.516Z,78.75684
2022-10-01T00:05:14.236Z,79.91309
2022-10-01T00:10:13.583Z,79.80273
2022-10-01T00:15:13.725Z,78.94922
2022-10-01T00:20:14.472Z,78.4541
2022-10-01T00:25:14.746Z,80.64355
2022-10-01T00:30:13.294Z,80.66895
2022-10-01T00:35:14.300Z,80.97363
2022-10-01T00:40:13.276Z,81.54199
2022-10-01T00:45:15.254Z,81.78418
2022-10-01T00:50:18.505Z,80.69824
2022-10-01T00:55:15.711Z,80.49121
2022-10-01T01:00:16.498Z,82.04102
2022-10-01T01:05:13.489Z,82.76367
2022-10-01T01:10:13.268Z,83.33301
2022-10-01T01:15:18.671Z,84.21484
2022-10-01T01:20:22.411Z,84.69434
2022-10-01T01:25:17.814Z,83.2998
2022-10-01T01:30:14.993Z,84.46191
2022-10-01T01:35:16.178Z,84.1416
2022-10-01T01:40:14.907Z,85.20508
2022-10-01T01:45:16.503Z,85.23828
2022-10-01T01:50:15.153Z,85.04883
2022-10-01T01:55:13.705Z,84.46777
2022-10-01T02:00:14.518Z,83.66113
2022-10-01T02:05:14.874Z,85.27734
2022-10-01T02:10:20.313Z,84.80469
2022-10-01T02:15:18.003Z,85.72656
2022-10-01T02:20:18.034Z,84.82129
2022-10-01T02:25:14.233Z,85.85352
2022-10-01T02:30:15.028Z,85.79297
2022-10-01T02:35:14.369Z,85.0791
2022-10-01T02:40:15.703Z,84.93262
2022-10-01T02:45:14.810Z,85.86621
2022-10-01T02:50:13.841Z,85.85059
2022-10-01T02:55:14.091Z,85.63867
2022-10-01T03:00:14.202Z,86.59961
2022-10-01T03:05:15.873Z,87.14844
2022-10-01T03:10:14.718Z,87.17969
2022-10-01T03:15:13.183Z,88.54102
2022-10-01T03:20:13.224Z,87.50488
2022-10-01T03:25:13.553Z,88.51172
2022-10-01T03:30:14.631Z,87.77734
2022-10-01T03:35:13.220Z,88.15332
2022-10-01T03:40:13.188Z,87.92969
2022-10-01T03:45:13.147Z,89.41699
2022-10-01T03:50:13.583Z,88.13477
2022-10-01T03:55:14.344Z,86.36816
2022-10-01T04:00:13.870Z,85.61035
2022-10-01T04:05:16.320Z,85.61426
2022-10-01T04:10:13.615Z,85.41504
2022-10-01T04:15:13.803Z,84.6416
2022-10-01T04:20:13.173Z,83.84082
2022-10-01T04:25:14.185Z,84.0293
2022-10-01T04:30:13.920Z,83.80859
2022-10-01T04:35:13.072Z,83.78711
2022-10-01T04:40:13.627Z,83.5127
2022-10-01T04:45:14.679Z,83.37988
2022-10-01T04:50:13.281Z,84.14844
2022-10-01T04:55:12.994Z,83.08203
2022-10-01T05:00:14.289Z,83.46777
2022-10-01T05:05:12.959Z,82.81836
2022-10-01T05:10:15.886Z,82.96094
2022-10-01T05:15:13.295Z,82.66992
2022-10-01T05:20:18.813Z,82.04004
2022-10-01T05:25:12.967Z,82.1582
2022-10-01T05:30:16.924Z,82.27148
2022-10-01T05:35:13.512Z,81.66992
2022-10-01T05:40:13.356Z,81.4043
2022-10-01T05:45:13.907Z,81.65723
2022-10-01T05:50:17.166Z,81.33301
2022-10-01T05:55:15.108Z,81.32617
2022-10-01T06:00:13.440Z,81.32227
2022-10-01T06:05:13.481Z,81.03809
2022-10-01T06:10:13.324Z,80.91602
2022-10-01T06:15:13.646Z,81.33691
2022-10-01T06:20:13.144Z,81.27539
2022-10-01T06:25:14.012Z,80.47656
2022-10-01T06:30:13.859Z,80.56641
2022-10-01T06:35:12.989Z,80.67578
2022-10-01T06:40:13.430Z,80.98828
2022-10-01T06:45:13.415Z,81.65332
2022-10-01T06:50:12.915Z,82.3916
2022-10-01T06:55:16.505Z,82.80469
2022-10-01T07:00:13.469Z,82.5957
2022-10-01T07:05:13.529Z,82.82031
2022-10-01T07:10:13.781Z,82.8584
2022-10-01T07:15:13.453Z,81.80078
2022-10-01T07:20:14.600Z,83.29883
2022-10-01T07:25:13.778Z,83.7832
2022-10-01T07:30:13.320Z,84.71484
2022-10-01T07:35:14.469Z,83.90234
2022-10-01T07:40:16.357Z,83.38574
2022-10-01T07:45:13.428Z,83.05859
2022-10-01T07:50:14.533Z,83.45996
2022-10-01T07:55:14.001Z,83.43848
2022-10-01T08:00:13.325Z,83.48145
2022-10-01T08:05:22.694Z,83.18066
2022-10-01T08:10:12.956Z,84.60254
2022-10-01T08:15:13.307Z,84.62305
2022-10-01T08:20:14.666Z,83.40723
2022-10-01T08:25:13.215Z,83.5293
2022-10-01T08:30:13.316Z,83.05176
2022-10-01T08:35:12.968Z,82.12988
2022-10-01T08:40:14.012Z,82.15039
2022-10-01T08:45:15.561Z,82.79395
2022-10-01T08:50:17.868Z,83.91113
2022-10-01T08:55:14.978Z,82.48145
2022-10-01T09:00:15.762Z,81.80664
2022-10-01T09:05:20.641Z,82.57715
2022-10-01T09:10:20.790Z,83.25488
2022-10-01T09:15:20.724Z,82.8584
2022-10-01T09:20:15.639Z,84.2373
2022-10-01T09:25:20.926Z,82.79297
2022-10-01T09:30:15.859Z,81.65723
2022-10-01T09:35:20.726Z,81.4043
2022-10-01T09:40:19.021Z,80.80957
2022-10-01T09:45:15.064Z,80.43262
2022-10-01T09:50:17.383Z,81.12109
2022-10-01T09:55:23.488Z,81.70801
2022-10-01T10:00:14.953Z,79.60156
2022-10-01T10:05:13.453Z,78.61816
2022-10-01T10:10:25.320Z,77.27148
2022-10-01T10:15:19.174Z,76.52246
2022-10-01T10:20:23.230Z,77.17871
2022-10-01T10:25:23.768Z,76.6709
2022-10-01T10:30:17.841Z,75.68262
2022-10-01T10:35:15.106Z,74.03027
2022-10-01T10:40:23.573Z,73.52539
2022-10-01T10:45:20.254Z,71.7334
2022-10-01T10:50:25.478Z,71.85742
2022-10-01T10:55:25.385Z,71.43262
2022-10-01T11:00:16.678Z,71.36621
2022-10-01T11:05:21.261Z,70.6748
2022-10-01T11:10:23.846Z,69.60742
2022-10-01T11:15:19.538Z,67.32813
2022-10-01T11:20:22.058Z,65.7334
2022-10-01T11:25:23.168Z,66.98145
2022-10-01T11:30:14.684Z,67.84473
2022-10-01T11:35:25.924Z,68.29297
2022-10-01T11:40:18.921Z,66.89746
2022-10-01T11:45:18.384Z,68.04004
2022-10-01T11:50:18.715Z,68.22168
2022-10-01T11:55:29.221Z,67.39355
2022-10-01T12:00:14.308Z,67.38281
2022-10-01T12:05:17.134Z,67.13477
2022-10-01T12:10:18.772Z,67.06934
2022-10-01T12:15:14.570Z,67.75488
2022-10-01T12:20:18.719Z,66.91602
2022-10-01T12:25:14.841Z,66.10352
2022-10-01T12:30:14.518Z,66.72949
2022-10-01T12:35:20.233Z,66.18848
2022-10-01T12:40:30.883Z,67.38672
2022-10-01T12:45:19.336Z,66.95801
2022-10-01T12:50:20.695Z,66.87305
2022-10-01T12:55:21.542Z,66.42969
2022-10-01T13:00:15.448Z,65.34473
2022-10-01T13:05:23.429Z,65.44922
2022-10-01T13:10:19.407Z,64.74316
2022-10-01T13:15:15.863Z,66.45898
2022-10-01T13:20:19.646Z,65.87109
2022-10-01T13:25:22.272Z,67.29004
2022-10-01T13:30:20.221Z,66.1875
2022-10-01T13:35:23.663Z,66.49609
2022-10-01T13:40:25.128Z,64.12207
2022-10-01T13:45:23.253Z,64.32227
2022-10-01T13:50:25.742Z,64.11426
2022-10-01T13:55:27.710Z,64.19238
2022-10-01T14:00:24.857Z,65.22656
2022-10-01T14:05:26.542Z,65.2373
2022-10-01T14:10:17.289Z,63.85352
2022-10-01T14:15:32.587Z,64.39453
2022-10-01T14:20:20.536Z,64.75098
2022-10-01T14:25:26.891Z,65.80957
2022-10-01T14:30:15.254Z,65.51074
2022-10-01T14:35:26.617Z,65.36816
2022-10-01T14:40:18.878Z,65.05273
2022-10-01T14:45:22.216Z,64.72852
2022-10-01T14:50:22.241Z,63.44727
2022-10-01T14:55:17.826Z,63.09668
2022-10-01T15:00:17.729Z,62.32129
2022-10-01T15:05:23.941Z,62.11816
2022-10-01T15:10:19.935Z,62.58398
2022-10-01T15:15:19.113Z,63.22363
2022-10-01T15:20:15.171Z,62.8584
2022-10-01T15:25:19.302Z,62.92285
2022-10-01T15:30:20.800Z,62.94727
2022-10-01T15:35:16.585Z,62.83203
2022-10-01T15:40:24.045Z,63.0918
2022-10-01T15:45:25.843Z,63.3125
2022-10-01T15:50:23.701Z,63.56738
2022-10-01T15:55:16.616Z,63.48438
2022-10-01T16:00:23.762Z,64.09375
2022-10-01T16:05:19.177Z,63.92383
2022-10-01T16:10:30.259Z,64.38965
2022-10-01T16:15:27.044Z,64.7666
2022-10-01T16:20:24.212Z,64.7334
2022-10-01T16:25:26.943Z,65.18359
2022-10-01T16:30:22.779Z,65.34668
2022-10-01T16:35:25.937Z,65.57227
2022-10-01T16:40:16.171Z,66.04688
2022-10-01T16:45:17.481Z,66.02539
2022-10-01T16:50:14.369Z,65.97461
2022-10-01T16:55:14.984Z,66.06055
2022-10-01T17:00:14.040Z,66.27441
2022-10-01T17:05:17.741Z,66.46191
2022-10-01T17:10:12.631Z,66.74512
2022-10-01T17:15:15.801Z,66.68359
2022-10-01T17:20:13.153Z,66.66504
2022-10-01T17:25:17.564Z,66.8291
2022-10-01T17:30:13.780Z,66.69141
2022-10-01T17:35:14.320Z,66.64355
2022-10-01T17:40:13.718Z,67.24316
2022-10-01T17:45:14.323Z,67.52734
2022-10-01T17:50:12.622Z,67.3252
2022-10-01T17:55:12.960Z,66.80566
2022-10-01T18:00:13.074Z,67.81348
2022-10-01T18:05:14.585Z,67.31445
2022-10-01T18:10:14.893Z,67.85254
2022-10-01T18:15:13.544Z,67.41602
2022-10-01T18:20:15.990Z,67.62793
2022-10-01T18:25:13.789Z,67.75684
2022-10-01T18:30:13.258Z,68.24023
2022-10-01T18:35:20.757Z,68.63574
2022-10-01T18:40:15.985Z,68.8418
2022-10-01T18:45:17.549Z,69.31641
2022-10-01T18:50:23.565Z,69.69336
2022-10-01T18:55:31.203Z,69.8252
2022-10-01T19:00:16.616Z,70.09277
2022-10-01T19:05:29.359Z,69.9707
2022-10-01T19:10:16.612Z,70.10547
2022-10-01T19:15:18.110Z,70.3125
2022-10-01T19:20:19.374Z,70.55664
2022-10-01T19:25:18.260Z,70.66895
2022-10-01T19:30:15.429Z,71.08398
2022-10-01T19:35:17.362Z,71.03418
2022-10-01T19:40:19.881Z,71.53125
2022-10-01T19:45:20.190Z,71.18066
2022-10-01T19:50:19.526Z,71.19238
2022-10-01T19:55:17.244Z,71.40918
2022-10-01T20:00:17.856Z,71.17578
2022-10-01T20:05:14.342Z,71.28027
2022-10-01T20:10:20.771Z,71.83887
2022-10-01T20:15:19.685Z,71.97168
2022-10-01T20:20:18.434Z,71.85449
2022-10-01T20:25:21.618Z,72.10352
2022-10-01T20:30:14.472Z,72.19141
2022-10-01T20:35:23.193Z,72.4873
2022-10-01T20:40:17.619Z,72.47949
2022-10-01T20:45:17.842Z,72.57324
2022-10-01T20:50:15.898Z,72.46191
2022-10-01T20:55:15.932Z,72.52441
2022-10-01T21:00:18.385Z,74.67285
2022-10-01T21:05:17.649Z,73.69238
2022-10-01T21:10:18.856Z,73.2998
2022-10-01T21:15:15.839Z,73.43066
2022-10-01T21:20:19.994Z,74.28613
2022-10-01T21:25:17.632Z,74.64063
2022-10-01T21:30:15.607Z,74.68359
2022-10-01T21:35:19.214Z,74.42383
2022-10-01T21:40:21.876Z,74.65625
2022-10-01T21:45:23.661Z,74.68652
2022-10-01T21:50:19.185Z,75.1123
2022-10-01T21:55:33.334Z,74.53711
2022-10-01T22:00:22.108Z,74.69922
2022-10-01T22:05:21.524Z,77.30859
2022-10-01T22:10:17.402Z,77.60547
2022-10-01T22:15:18.642Z,76.81934
2022-10-01T22:20:13.255Z,77.11133
2022-10-01T22:25:13.494Z,76.92383
2022-10-01T22:30:15.758Z,76.70898
2022-10-01T22:35:17.455Z,76.45215
2022-10-01T22:40:17.992Z,76.1084
2022-10-01T22:45:16.514Z,76.01172
2022-10-01T22:50:20.000Z,75.75293
2022-10-01T22:55:20.558Z,75.49902
2022-10-01T23:00:13.593Z,75.70215
2022-10-01T23:05:15.982Z,76.09277
2022-10-01T23:10:15.062Z,75.625
2022-10-01T23:15:17.908Z,75.9834
2022-10-01T23:20:20.103Z,75.77246
2022-10-01T23:25:18.904Z,75.66992
2022-10-01T23:30:16.604Z,75.58984
2022-10-01T23:35:16.715Z,75.75098
2022-10-01T23:40:13.558Z,75.4043
2022-10-01T23:45:25.000Z,75.67578
2022-10-01T23:50:21.405Z,76.09082
2022-10-01T23:55:28.863Z,77.39063
